sensor_id;sensor_type;location;lat;lon;timestamp;pressure;altitude;pressure_sealevel;temperature;humidity
68822;BME280;55834;50.870;4.606;2023-07-13T00:01:45;100822.84;;;16.37;47.60
68822;BME280;55834;50.870;4.606;2023-07-13T00:04:18;100818.63;;;16.33;47.66
68822;BME280;55834;50.870;4.606;2023-07-13T00:06:45;100819.16;;;16.57;46.92
68822;BME280;55834;50.870;4.606;2023-07-13T00:09:11;100824.16;;;16.63;47.31
68822;BME280;55834;50.870;4.606;2023-07-13T00:11:38;100828.81;;;16.42;47.25
68822;BME280;55834;50.870;4.606;2023-07-13T00:14:03;100815.78;;;16.36;48.03
68822;BME280;55834;50.870;4.606;2023-07-13T00:16:28;100810.03;;;15.92;48.98
68822;BME280;55834;50.870;4.606;2023-07-13T00:18:54;100814.91;;;16.01;49.01
68822;BME280;55834;50.870;4.606;2023-07-13T00:21:19;100813.16;;;16.00;48.87
68822;BME280;55834;50.870;4.606;2023-07-13T00:23:44;100813.59;;;16.27;48.42
68822;BME280;55834;50.870;4.606;2023-07-13T00:26:11;100815.41;;;16.44;47.54
68822;BME280;55834;50.870;4.606;2023-07-13T00:28:37;100821.91;;;16.38;48.05
68822;BME280;55834;50.870;4.606;2023-07-13T00:31:04;100818.13;;;16.42;47.54
68822;BME280;55834;50.870;4.606;2023-07-13T00:33:30;100818.63;;;16.51;47.91
68822;BME280;55834;50.870;4.606;2023-07-13T00:35:56;100819.63;;;16.48;47.33
68822;BME280;55834;50.870;4.606;2023-07-13T00:38:22;100826.94;;;16.44;47.64
68822;BME280;55834;50.870;4.606;2023-07-13T00:40:48;100818.63;;;16.51;47.69
68822;BME280;55834;50.870;4.606;2023-07-13T00:43:26;100810.38;;;16.38;47.73
68822;BME280;55834;50.870;4.606;2023-07-13T00:48:26;100813.44;;;16.47;47.35
68822;BME280;55834;50.870;4.606;2023-07-13T00:50:55;100816.28;;;16.44;47.49
68822;BME280;55834;50.870;4.606;2023-07-13T00:53:24;100827.00;;;16.26;48.07
68822;BME280;55834;50.870;4.606;2023-07-13T00:55:50;100825.19;;;16.26;48.47
68822;BME280;55834;50.870;4.606;2023-07-13T00:58:16;100822.41;;;16.10;48.44
68822;BME280;55834;50.870;4.606;2023-07-13T01:00:42;100823.06;;;16.15;48.47
68822;BME280;55834;50.870;4.606;2023-07-13T01:03:08;100820.38;;;16.15;48.48
68822;BME280;55834;50.870;4.606;2023-07-13T01:05:34;100831.16;;;15.77;50.12
68822;BME280;55834;50.870;4.606;2023-07-13T01:08:01;100835.44;;;15.80;50.13
68822;BME280;55834;50.870;4.606;2023-07-13T01:10:27;100841.09;;;15.91;48.90
68822;BME280;55834;50.870;4.606;2023-07-13T01:12:54;100846.22;;;15.77;49.57
68822;BME280;55834;50.870;4.606;2023-07-13T01:15:38;100847.38;;;15.90;49.59
68822;BME280;55834;50.870;4.606;2023-07-13T01:18:09;100845.53;;;15.73;49.93
68822;BME280;55834;50.870;4.606;2023-07-13T01:20:35;100848.00;;;15.40;50.64
68822;BME280;55834;50.870;4.606;2023-07-13T01:23:09;100854.19;;;15.41;50.86
68822;BME280;55834;50.870;4.606;2023-07-13T01:25:36;100860.00;;;15.49;50.61
68822;BME280;55834;50.870;4.606;2023-07-13T01:28:06;100850.94;;;15.53;50.88
68822;BME280;55834;50.870;4.606;2023-07-13T01:30:34;100852.66;;;15.54;50.71
68822;BME280;55834;50.870;4.606;2023-07-13T01:33:00;100860.78;;;15.70;50.26
68822;BME280;55834;50.870;4.606;2023-07-13T01:35:25;100860.56;;;15.74;50.07
68822;BME280;55834;50.870;4.606;2023-07-13T01:37:52;100865.44;;;15.84;49.72
68822;BME280;55834;50.870;4.606;2023-07-13T01:40:17;100864.81;;;15.78;48.90
68822;BME280;55834;50.870;4.606;2023-07-13T01:42:43;100859.06;;;15.69;49.84
68822;BME280;55834;50.870;4.606;2023-07-13T01:45:09;100866.81;;;15.73;49.76
68822;BME280;55834;50.870;4.606;2023-07-13T01:47:34;100857.81;;;15.76;49.67
68822;BME280;55834;50.870;4.606;2023-07-13T01:50:00;100858.69;;;15.76;49.58
68822;BME280;55834;50.870;4.606;2023-07-13T01:52:25;100861.59;;;15.72;48.98
68822;BME280;55834;50.870;4.606;2023-07-13T01:54:50;100856.16;;;15.73;49.68
68822;BME280;55834;50.870;4.606;2023-07-13T01:57:16;100863.44;;;15.70;49.36
68822;BME280;55834;50.870;4.606;2023-07-13T01:59:41;100863.38;;;15.52;49.49
68822;BME280;55834;50.870;4.606;2023-07-13T02:02:06;100871.22;;;15.55;50.19
68822;BME280;55834;50.870;4.606;2023-07-13T02:04:32;100864.53;;;15.47;50.12
68822;BME280;55834;50.870;4.606;2023-07-13T02:06:58;100876.66;;;14.94;51.02
68822;BME280;55834;50.870;4.606;2023-07-13T02:09:23;100872.06;;;14.98;52.69
68822;BME280;55834;50.870;4.606;2023-07-13T02:11:48;100867.19;;;15.07;52.00
68822;BME280;55834;50.870;4.606;2023-07-13T02:14:14;100864.72;;;15.23;51.39
68822;BME280;55834;50.870;4.606;2023-07-13T02:16:41;100859.78;;;15.34;50.91
68822;BME280;55834;50.870;4.606;2023-07-13T02:19:06;100867.09;;;15.29;50.15
68822;BME280;55834;50.870;4.606;2023-07-13T02:21:32;100856.63;;;15.06;51.17
68822;BME280;55834;50.870;4.606;2023-07-13T02:23:57;100867.72;;;14.76;52.62
68822;BME280;55834;50.870;4.606;2023-07-13T02:26:23;100861.75;;;14.90;52.61
68822;BME280;55834;50.870;4.606;2023-07-13T02:28:48;100860.28;;;15.03;51.28
68822;BME280;55834;50.870;4.606;2023-07-13T02:31:15;100862.81;;;15.06;50.92
68822;BME280;55834;50.870;4.606;2023-07-13T02:33:40;100866.19;;;15.10;50.41
68822;BME280;55834;50.870;4.606;2023-07-13T02:36:06;100868.50;;;15.18;50.89
68822;BME280;55834;50.870;4.606;2023-07-13T02:38:32;100874.03;;;15.13;50.50
68822;BME280;55834;50.870;4.606;2023-07-13T02:41:05;100871.13;;;14.99;51.00
68822;BME280;55834;50.870;4.606;2023-07-13T02:43:31;100863.38;;;14.94;51.41
68822;BME280;55834;50.870;4.606;2023-07-13T02:45:59;100869.84;;;14.68;51.67
68822;BME280;55834;50.870;4.606;2023-07-13T02:48:29;100883.56;;;14.78;52.31
68822;BME280;55834;50.870;4.606;2023-07-13T02:50:54;100877.59;;;14.73;52.06
68822;BME280;55834;50.870;4.606;2023-07-13T02:53:19;100875.56;;;14.79;51.76
68822;BME280;55834;50.870;4.606;2023-07-13T02:55:45;100872.63;;;14.65;52.55
68822;BME280;55834;50.870;4.606;2023-07-13T02:58:12;100873.25;;;14.70;51.83
68822;BME280;55834;50.870;4.606;2023-07-13T03:00:42;100871.97;;;14.60;53.01
68822;BME280;55834;50.870;4.606;2023-07-13T03:03:08;100870.41;;;14.75;52.58
68822;BME280;55834;50.870;4.606;2023-07-13T03:05:33;100875.69;;;14.76;51.96
68822;BME280;55834;50.870;4.606;2023-07-13T03:07:59;100872.28;;;14.73;51.49
68822;BME280;55834;50.870;4.606;2023-07-13T03:10:24;100874.88;;;14.74;52.00
68822;BME280;55834;50.870;4.606;2023-07-13T03:12:50;100869.34;;;14.58;53.33
68822;BME280;55834;50.870;4.606;2023-07-13T03:15:15;100878.44;;;14.53;53.75
68822;BME280;55834;50.870;4.606;2023-07-13T03:17:41;100877.28;;;14.60;53.06
68822;BME280;55834;50.870;4.606;2023-07-13T03:20:07;100872.34;;;14.71;53.10
68822;BME280;55834;50.870;4.606;2023-07-13T03:22:32;100885.09;;;14.63;52.67
68822;BME280;55834;50.870;4.606;2023-07-13T03:24:58;100882.44;;;14.63;53.21
68822;BME280;55834;50.870;4.606;2023-07-13T03:27:23;100873.41;;;14.67;53.08
68822;BME280;55834;50.870;4.606;2023-07-13T03:29:48;100884.38;;;14.59;53.31
68822;BME280;55834;50.870;4.606;2023-07-13T03:32:14;100880.75;;;14.40;53.43
68822;BME280;55834;50.870;4.606;2023-07-13T03:34:39;100874.56;;;14.39;53.71
68822;BME280;55834;50.870;4.606;2023-07-13T03:37:05;100874.66;;;14.16;53.55
68822;BME280;55834;50.870;4.606;2023-07-13T03:39:30;100885.72;;;14.27;54.58
68822;BME280;55834;50.870;4.606;2023-07-13T03:41:55;100883.56;;;14.35;54.38
68822;BME280;55834;50.870;4.606;2023-07-13T03:44:21;100889.50;;;14.42;53.55
68822;BME280;55834;50.870;4.606;2023-07-13T03:46:46;100887.44;;;14.28;54.42
68822;BME280;55834;50.870;4.606;2023-07-13T03:49:12;100898.19;;;14.25;55.28
68822;BME280;55834;50.870;4.606;2023-07-13T03:51:37;100904.03;;;14.33;54.95
68822;BME280;55834;50.870;4.606;2023-07-13T03:54:03;100907.94;;;14.47;54.97
68822;BME280;55834;50.870;4.606;2023-07-13T03:56:30;100913.59;;;14.37;55.36
68822;BME280;55834;50.870;4.606;2023-07-13T03:58:56;100908.53;;;14.31;55.73
68822;BME280;55834;50.870;4.606;2023-07-13T04:01:23;100916.69;;;14.27;56.26
68822;BME280;55834;50.870;4.606;2023-07-13T04:03:50;100913.06;;;14.51;55.81
68822;BME280;55834;50.870;4.606;2023-07-13T04:06:21;100913.13;;;14.50;55.78
68822;BME280;55834;50.870;4.606;2023-07-13T04:08:49;100915.88;;;14.69;55.81
68822;BME280;55834;50.870;4.606;2023-07-13T04:11:15;100916.81;;;14.88;55.31
68822;BME280;55834;50.870;4.606;2023-07-13T04:13:40;100919.13;;;14.75;55.97
68822;BME280;55834;50.870;4.606;2023-07-13T04:16:06;100919.13;;;14.75;55.87
68822;BME280;55834;50.870;4.606;2023-07-13T04:18:31;100916.59;;;14.72;56.48
68822;BME280;55834;50.870;4.606;2023-07-13T04:20:57;100921.78;;;14.75;56.17
68822;BME280;55834;50.870;4.606;2023-07-13T04:23:22;100924.53;;;14.52;56.46
68822;BME280;55834;50.870;4.606;2023-07-13T04:25:49;100929.44;;;14.83;56.71
68822;BME280;55834;50.870;4.606;2023-07-13T04:28:17;100931.38;;;14.79;56.20
68822;BME280;55834;50.870;4.606;2023-07-13T04:30:43;100931.63;;;14.94;55.83
68822;BME280;55834;50.870;4.606;2023-07-13T04:33:09;100935.53;;;15.05;55.97
68822;BME280;55834;50.870;4.606;2023-07-13T04:35:34;100929.28;;;15.06;55.66
68822;BME280;55834;50.870;4.606;2023-07-13T04:38:00;100929.16;;;15.09;55.46
68822;BME280;55834;50.870;4.606;2023-07-13T04:40:27;100929.63;;;14.78;56.57
68822;BME280;55834;50.870;4.606;2023-07-13T04:42:53;100934.56;;;15.08;56.24
68822;BME280;55834;50.870;4.606;2023-07-13T04:45:18;100937.00;;;14.72;56.41
68822;BME280;55834;50.870;4.606;2023-07-13T04:47:43;100933.75;;;14.85;56.13
68822;BME280;55834;50.870;4.606;2023-07-13T04:50:09;100930.81;;;15.12;56.52
68822;BME280;55834;50.870;4.606;2023-07-13T04:52:36;100943.66;;;15.02;55.67
68822;BME280;55834;50.870;4.606;2023-07-13T04:55:01;100941.31;;;15.15;56.39
68822;BME280;55834;50.870;4.606;2023-07-13T04:57:27;100940.75;;;15.27;56.24
68822;BME280;55834;50.870;4.606;2023-07-13T04:59:52;100941.84;;;15.44;56.39
68822;BME280;55834;50.870;4.606;2023-07-13T05:02:19;100941.88;;;15.42;55.54
68822;BME280;55834;50.870;4.606;2023-07-13T05:04:48;100952.19;;;15.50;55.49
68822;BME280;55834;50.870;4.606;2023-07-13T05:07:14;100952.56;;;15.61;55.67
68822;BME280;55834;50.870;4.606;2023-07-13T05:09:40;100957.13;;;15.39;55.56
68822;BME280;55834;50.870;4.606;2023-07-13T05:12:09;100957.31;;;15.13;56.59
68822;BME280;55834;50.870;4.606;2023-07-13T05:14:35;100963.13;;;15.23;57.54
68822;BME280;55834;50.870;4.606;2023-07-13T05:17:00;100964.56;;;15.51;56.61
68822;BME280;55834;50.870;4.606;2023-07-13T05:19:26;100964.34;;;15.55;55.97
68822;BME280;55834;50.870;4.606;2023-07-13T05:21:52;100964.41;;;15.35;56.25
68822;BME280;55834;50.870;4.606;2023-07-13T05:24:18;100966.03;;;14.76;57.46
68822;BME280;55834;50.870;4.606;2023-07-13T05:26:44;100969.97;;;15.29;57.16
68822;BME280;55834;50.870;4.606;2023-07-13T05:29:11;100964.22;;;15.59;56.35
68822;BME280;55834;50.870;4.606;2023-07-13T05:31:36;100971.44;;;15.75;55.53
68822;BME280;55834;50.870;4.606;2023-07-13T05:34:02;100966.66;;;15.82;55.38
68822;BME280;55834;50.870;4.606;2023-07-13T05:36:28;100957.59;;;15.67;55.92
68822;BME280;55834;50.870;4.606;2023-07-13T05:39:03;100969.84;;;15.90;55.21
68822;BME280;55834;50.870;4.606;2023-07-13T05:41:30;100974.34;;;15.30;56.62
68822;BME280;55834;50.870;4.606;2023-07-13T05:43:59;100968.63;;;15.39;56.95
68822;BME280;55834;50.870;4.606;2023-07-13T05:46:28;100969.63;;;15.16;57.09
68822;BME280;55834;50.870;4.606;2023-07-13T05:48:53;100972.09;;;15.41;56.88
68822;BME280;55834;50.870;4.606;2023-07-13T05:51:19;100973.75;;;15.83;55.53
68822;BME280;55834;50.870;4.606;2023-07-13T05:53:45;100972.09;;;15.81;55.70
68822;BME280;55834;50.870;4.606;2023-07-13T05:56:10;100984.97;;;15.90;55.82
68822;BME280;55834;50.870;4.606;2023-07-13T05:58:36;100984.66;;;15.77;56.17
68822;BME280;55834;50.870;4.606;2023-07-13T06:01:06;100985.69;;;15.93;56.37
68822;BME280;55834;50.870;4.606;2023-07-13T06:03:32;100992.41;;;15.63;56.30
68822;BME280;55834;50.870;4.606;2023-07-13T06:05:58;100988.63;;;15.87;56.39
68822;BME280;55834;50.870;4.606;2023-07-13T06:08:25;100991.50;;;15.83;55.87
68822;BME280;55834;50.870;4.606;2023-07-13T06:10:51;100988.97;;;15.79;55.50
68822;BME280;55834;50.870;4.606;2023-07-13T06:13:16;100995.44;;;15.55;56.40
68822;BME280;55834;50.870;4.606;2023-07-13T06:15:42;100996.09;;;15.79;55.74
68822;BME280;55834;50.870;4.606;2023-07-13T06:18:07;101002.03;;;15.26;56.76
68822;BME280;55834;50.870;4.606;2023-07-13T06:20:34;101002.56;;;15.54;57.05
68822;BME280;55834;50.870;4.606;2023-07-13T06:23:01;101008.75;;;15.34;57.15
68822;BME280;55834;50.870;4.606;2023-07-13T06:25:26;101006.78;;;15.59;56.63
68822;BME280;55834;50.870;4.606;2023-07-13T06:27:51;101013.81;;;15.41;56.97
68822;BME280;55834;50.870;4.606;2023-07-13T06:30:17;101010.13;;;15.64;57.21
68822;BME280;55834;50.870;4.606;2023-07-13T06:32:42;101009.50;;;15.57;56.78
68822;BME280;55834;50.870;4.606;2023-07-13T06:35:08;101010.00;;;15.05;58.68
68822;BME280;55834;50.870;4.606;2023-07-13T06:37:33;101018.09;;;15.64;56.95
68822;BME280;55834;50.870;4.606;2023-07-13T06:39:58;101021.53;;;15.86;56.11
68822;BME280;55834;50.870;4.606;2023-07-13T06:42:24;101015.25;;;15.87;56.71
68822;BME280;55834;50.870;4.606;2023-07-13T06:44:49;101023.72;;;15.57;56.52
68822;BME280;55834;50.870;4.606;2023-07-13T06:47:14;101019.94;;;16.01;56.04
68822;BME280;55834;50.870;4.606;2023-07-13T06:49:40;101031.63;;;16.17;55.80
68822;BME280;55834;50.870;4.606;2023-07-13T06:52:05;101021.81;;;16.56;54.85
68822;BME280;55834;50.870;4.606;2023-07-13T06:54:31;101021.53;;;16.43;54.79
68822;BME280;55834;50.870;4.606;2023-07-13T06:56:56;101019.81;;;16.42;55.21
68822;BME280;55834;50.870;4.606;2023-07-13T06:59:22;101021.03;;;16.71;54.56
68822;BME280;55834;50.870;4.606;2023-07-13T07:01:47;101019.28;;;16.53;54.90
68822;BME280;55834;50.870;4.606;2023-07-13T07:04:12;101025.38;;;16.55;54.88
68822;BME280;55834;50.870;4.606;2023-07-13T07:06:38;101021.56;;;16.60;54.18
68822;BME280;55834;50.870;4.606;2023-07-13T07:09:03;101022.75;;;17.08;53.86
68822;BME280;55834;50.870;4.606;2023-07-13T07:11:29;101021.31;;;17.19;53.04
68822;BME280;55834;50.870;4.606;2023-07-13T07:13:54;101023.22;;;17.34;53.43
68822;BME280;55834;50.870;4.606;2023-07-13T07:16:20;101023.72;;;17.58;52.43
68822;BME280;55834;50.870;4.606;2023-07-13T07:18:46;101026.81;;;17.16;52.64
68822;BME280;55834;50.870;4.606;2023-07-13T07:21:12;101026.03;;;17.31;52.77
68822;BME280;55834;50.870;4.606;2023-07-13T07:23:38;101026.78;;;17.33;53.23
68822;BME280;55834;50.870;4.606;2023-07-13T07:26:04;101035.59;;;17.68;52.13
68822;BME280;55834;50.870;4.606;2023-07-13T07:28:29;101033.25;;;17.79;51.52
68822;BME280;55834;50.870;4.606;2023-07-13T07:30:57;101028.63;;;17.99;51.44
68822;BME280;55834;50.870;4.606;2023-07-13T07:33:23;101030.88;;;17.91;51.02
68822;BME280;55834;50.870;4.606;2023-07-13T07:35:48;101033.25;;;17.79;51.58
68822;BME280;55834;50.870;4.606;2023-07-13T07:38:14;101035.22;;;17.43;51.92
68822;BME280;55834;50.870;4.606;2023-07-13T07:40:40;101028.06;;;17.26;52.23
68822;BME280;55834;50.870;4.606;2023-07-13T07:43:07;101035.28;;;17.41;52.21
68822;BME280;55834;50.870;4.606;2023-07-13T07:45:34;101038.97;;;17.04;52.88
68822;BME280;55834;50.870;4.606;2023-07-13T07:47:59;101042.66;;;17.36;52.77
68822;BME280;55834;50.870;4.606;2023-07-13T07:50:26;101044.03;;;17.61;52.05
68822;BME280;55834;50.870;4.606;2023-07-13T07:52:51;101037.88;;;17.43;51.73
68822;BME280;55834;50.870;4.606;2023-07-13T07:55:17;101042.03;;;17.48;51.23
68822;BME280;55834;50.870;4.606;2023-07-13T07:57:42;101042.47;;;17.56;52.13
68822;BME280;55834;50.870;4.606;2023-07-13T08:00:08;101044.78;;;17.29;51.23
68822;BME280;55834;50.870;4.606;2023-07-13T08:02:33;101054.06;;;17.73;52.04
68822;BME280;55834;50.870;4.606;2023-07-13T08:04:59;101042.41;;;17.91;51.65
68822;BME280;55834;50.870;4.606;2023-07-13T08:07:24;101054.44;;;18.32;50.10
68822;BME280;55834;50.870;4.606;2023-07-13T08:09:52;101051.91;;;17.46;51.54
68822;BME280;55834;50.870;4.606;2023-07-13T08:12:18;101045.34;;;18.02;52.07
68822;BME280;55834;50.870;4.606;2023-07-13T08:14:43;101053.31;;;18.36;51.00
68822;BME280;55834;50.870;4.606;2023-07-13T08:17:08;101047.63;;;18.42;50.19
68822;BME280;55834;50.870;4.606;2023-07-13T08:19:34;101042.25;;;18.89;50.01
68822;BME280;55834;50.870;4.606;2023-07-13T08:21:59;101046.00;;;18.71;48.99
68822;BME280;55834;50.870;4.606;2023-07-13T08:24:24;101041.13;;;19.24;49.25
68822;BME280;55834;50.870;4.606;2023-07-13T08:26:51;101039.56;;;19.78;47.73
68822;BME280;55834;50.870;4.606;2023-07-13T08:29:16;101043.09;;;19.79;47.24
68822;BME280;55834;50.870;4.606;2023-07-13T08:31:41;101047.34;;;20.12;46.72
68822;BME280;55834;50.870;4.606;2023-07-13T08:34:07;101050.91;;;18.79;47.82
68822;BME280;55834;50.870;4.606;2023-07-13T08:36:32;101047.63;;;18.74;47.70
68822;BME280;55834;50.870;4.606;2023-07-13T08:38:57;101052.94;;;19.50;45.49
68822;BME280;55834;50.870;4.606;2023-07-13T08:41:23;101049.50;;;19.48;46.35
68822;BME280;55834;50.870;4.606;2023-07-13T08:43:51;101043.25;;;19.33;47.09
68822;BME280;55834;50.870;4.606;2023-07-13T08:46:32;101040.22;;;19.09;46.47
68822;BME280;55834;50.870;4.606;2023-07-13T08:49:03;101052.56;;;19.11;47.28
68822;BME280;55834;50.870;4.606;2023-07-13T08:54:12;101047.13;;;19.72;45.67
68822;BME280;55834;50.870;4.606;2023-07-13T08:56:43;101052.41;;;20.16;46.12
68822;BME280;55834;50.870;4.606;2023-07-13T08:59:16;101054.59;;;19.22;46.02
68822;BME280;55834;50.870;4.606;2023-07-13T09:02:23;101048.00;;;19.87;43.98
68822;BME280;55834;50.870;4.606;2023-07-13T09:05:13;101052.50;;;19.72;44.33
68822;BME280;55834;50.870;4.606;2023-07-13T09:10:36;101048.56;;;20.35;44.37
68822;BME280;55834;50.870;4.606;2023-07-13T09:15:43;101050.22;;;19.94;43.68
68822;BME280;55834;50.870;4.606;2023-07-13T09:18:26;101048.19;;;19.69;45.20
68822;BME280;55834;50.870;4.606;2023-07-13T09:20:57;101046.13;;;20.44;43.37
68822;BME280;55834;50.870;4.606;2023-07-13T09:23:27;101039.69;;;19.63;44.51
68822;BME280;55834;50.870;4.606;2023-07-13T09:26:01;101046.84;;;20.61;43.58
68822;BME280;55834;50.870;4.606;2023-07-13T09:28:34;101040.22;;;20.93;42.57
68822;BME280;55834;50.870;4.606;2023-07-13T09:31:16;101050.97;;;19.96;43.15
68822;BME280;55834;50.870;4.606;2023-07-13T09:33:43;101044.72;;;20.66;43.16
68822;BME280;55834;50.870;4.606;2023-07-13T09:36:26;101060.59;;;18.65;44.73
68822;BME280;55834;50.870;4.606;2023-07-13T09:44:13;101060.41;;;20.31;44.47
68822;BME280;55834;50.870;4.606;2023-07-13T09:46:47;101057.09;;;20.68;43.80
68822;BME280;55834;50.870;4.606;2023-07-13T09:49:17;101058.25;;;20.23;43.65
68822;BME280;55834;50.870;4.606;2023-07-13T09:51:44;101058.63;;;20.58;43.37
68822;BME280;55834;50.870;4.606;2023-07-13T09:54:24;101055.28;;;21.09;40.99
68822;BME280;55834;50.870;4.606;2023-07-13T09:56:58;101054.63;;;21.18;42.08
68822;BME280;55834;50.870;4.606;2023-07-13T09:59:39;101057.19;;;21.34;41.15
68822;BME280;55834;50.870;4.606;2023-07-13T10:02:35;101063.41;;;20.94;41.34
68822;BME280;55834;50.870;4.606;2023-07-13T10:05:06;101060.72;;;20.94;40.45
68822;BME280;55834;50.870;4.606;2023-07-13T10:07:38;101064.84;;;21.13;40.66
68822;BME280;55834;50.870;4.606;2023-07-13T10:10:14;101055.91;;;21.00;42.06
68822;BME280;55834;50.870;4.606;2023-07-13T10:12:39;101043.53;;;21.37;42.04
68822;BME280;55834;50.870;4.606;2023-07-13T10:15:15;101053.31;;;21.89;41.55
68822;BME280;55834;50.870;4.606;2023-07-13T10:17:41;101070.66;;;20.38;41.68
68822;BME280;55834;50.870;4.606;2023-07-13T10:20:07;101055.03;;;20.99;40.81
68822;BME280;55834;50.870;4.606;2023-07-13T10:22:52;101065.28;;;21.98;40.39
68822;BME280;55834;50.870;4.606;2023-07-13T10:25:22;101072.56;;;20.78;40.67
68822;BME280;55834;50.870;4.606;2023-07-13T10:28:43;101075.78;;;20.70;42.28
68822;BME280;55834;50.870;4.606;2023-07-13T10:30:45;101070.28;;;20.30;43.60
68822;BME280;55834;50.870;4.606;2023-07-13T10:33:13;101069.56;;;20.69;43.48
68822;BME280;55834;50.870;4.606;2023-07-13T10:35:43;101064.72;;;20.75;42.07
68822;BME280;55834;50.870;4.606;2023-07-13T10:38:14;101074.53;;;20.61;39.81
68822;BME280;55834;50.870;4.606;2023-07-13T10:40:46;101067.13;;;21.19;39.62
68822;BME280;55834;50.870;4.606;2023-07-13T10:43:20;101070.88;;;19.92;42.75
68822;BME280;55834;50.870;4.606;2023-07-13T10:45:48;101079.25;;;19.57;42.92
68822;BME280;55834;50.870;4.606;2023-07-13T10:48:15;101096.94;;;20.60;41.10
68822;BME280;55834;50.870;4.606;2023-07-13T10:50:44;101083.72;;;20.71;40.64
68822;BME280;55834;50.870;4.606;2023-07-13T10:53:30;101075.25;;;21.17;39.14
68822;BME280;55834;50.870;4.606;2023-07-13T10:56:01;101081.03;;;20.71;40.06
68822;BME280;55834;50.870;4.606;2023-07-13T10:58:44;101076.88;;;20.80;41.16
68822;BME280;55834;50.870;4.606;2023-07-13T11:01:17;101067.13;;;20.38;40.78
68822;BME280;55834;50.870;4.606;2023-07-13T11:03:51;101075.94;;;20.81;40.28
68822;BME280;55834;50.870;4.606;2023-07-13T11:08:56;101075.69;;;21.11;39.58
68822;BME280;55834;50.870;4.606;2023-07-13T11:18:44;101069.88;;;21.05;40.24
68822;BME280;55834;50.870;4.606;2023-07-13T11:21:26;101079.59;;;20.66;41.12
68822;BME280;55834;50.870;4.606;2023-07-13T11:23:54;101082.97;;;21.09;38.75
68822;BME280;55834;50.870;4.606;2023-07-13T11:26:50;101079.41;;;20.96;38.48
68822;BME280;55834;50.870;4.606;2023-07-13T11:29:26;101068.59;;;22.01;38.75
68822;BME280;55834;50.870;4.606;2023-07-13T11:32:00;101072.94;;;21.26;37.93
68822;BME280;55834;50.870;4.606;2023-07-13T11:34:36;101072.78;;;21.42;38.22
68822;BME280;55834;50.870;4.606;2023-07-13T11:37:07;101063.00;;;20.73;41.32
68822;BME280;55834;50.870;4.606;2023-07-13T11:39:37;101069.97;;;21.43;38.92
68822;BME280;55834;50.870;4.606;2023-07-13T11:42:07;101066.22;;;21.33;38.84
68822;BME280;55834;50.870;4.606;2023-07-13T11:44:34;101075.00;;;20.54;40.08
68822;BME280;55834;50.870;4.606;2023-07-13T11:47:08;101073.00;;;21.77;39.11
68822;BME280;55834;50.870;4.606;2023-07-13T11:49:42;101070.28;;;22.15;38.08
68822;BME280;55834;50.870;4.606;2023-07-13T11:52:12;101068.28;;;22.06;38.14
68822;BME280;55834;50.870;4.606;2023-07-13T11:54:51;101067.16;;;21.32;39.16
68822;BME280;55834;50.870;4.606;2023-07-13T11:57:28;101078.47;;;21.62;38.22
68822;BME280;55834;50.870;4.606;2023-07-13T11:59:56;101068.91;;;21.06;37.58
68822;BME280;55834;50.870;4.606;2023-07-13T12:02:29;101081.78;;;21.40;37.89
68822;BME280;55834;50.870;4.606;2023-07-13T12:04:57;101079.00;;;21.93;38.14
68822;BME280;55834;50.870;4.606;2023-07-13T12:07:22;101087.22;;;21.26;38.19
68822;BME280;55834;50.870;4.606;2023-07-13T12:09:48;101087.88;;;21.30;37.20
68822;BME280;55834;50.870;4.606;2023-07-13T12:12:21;101088.78;;;21.56;37.23
68822;BME280;55834;50.870;4.606;2023-07-13T12:14:51;101098.66;;;20.76;39.43
68822;BME280;55834;50.870;4.606;2023-07-13T12:17:20;101107.25;;;20.11;39.32
68822;BME280;55834;50.870;4.606;2023-07-13T12:19:47;101090.50;;;20.07;40.12
68822;BME280;55834;50.870;4.606;2023-07-13T12:22:14;101097.19;;;19.86;40.76
68822;BME280;55834;50.870;4.606;2023-07-13T12:24:41;101088.81;;;20.06;41.52
68822;BME280;55834;50.870;4.606;2023-07-13T12:27:21;101099.31;;;20.09;41.94
68822;BME280;55834;50.870;4.606;2023-07-13T12:29:57;101098.72;;;19.90;40.45
68822;BME280;55834;50.870;4.606;2023-07-13T12:32:25;101106.13;;;20.00;39.99
68822;BME280;55834;50.870;4.606;2023-07-13T12:35:15;101115.16;;;20.55;39.53
68822;BME280;55834;50.870;4.606;2023-07-13T12:37:50;101108.16;;;20.53;38.61
68822;BME280;55834;50.870;4.606;2023-07-13T12:40:28;101110.97;;;20.22;39.67
68822;BME280;55834;50.870;4.606;2023-07-13T12:42:56;101114.97;;;19.87;41.77
68822;BME280;55834;50.870;4.606;2023-07-13T12:47:49;101139.38;;;19.22;44.24
68822;BME280;55834;50.870;4.606;2023-07-13T12:50:18;101150.28;;;18.87;47.25
68822;BME280;55834;50.870;4.606;2023-07-13T12:52:44;101143.81;;;18.26;48.32
68822;BME280;55834;50.870;4.606;2023-07-13T12:55:20;101145.66;;;17.57;49.37
68822;BME280;55834;50.870;4.606;2023-07-13T12:57:57;101147.75;;;17.51;48.08
68822;BME280;55834;50.870;4.606;2023-07-13T13:02:56;101140.53;;;17.53;51.15
68822;BME280;55834;50.870;4.606;2023-07-13T13:05:22;101151.16;;;15.43;56.70
68822;BME280;55834;50.870;4.606;2023-07-13T13:07:49;101146.91;;;16.78;55.05
68822;BME280;55834;50.870;4.606;2023-07-13T13:10:15;101146.03;;;17.67;52.02
68822;BME280;55834;50.870;4.606;2023-07-13T13:12:41;101140.22;;;17.94;52.90
68822;BME280;55834;50.870;4.606;2023-07-13T13:15:10;101148.19;;;18.11;53.03
68822;BME280;55834;50.870;4.606;2023-07-13T13:17:37;101148.47;;;18.71;51.85
68822;BME280;55834;50.870;4.606;2023-07-13T13:20:20;101147.63;;;18.71;51.90
68822;BME280;55834;50.870;4.606;2023-07-13T13:22:46;101142.13;;;19.20;50.92
68822;BME280;55834;50.870;4.606;2023-07-13T13:25:15;101132.34;;;18.89;51.43
68822;BME280;55834;50.870;4.606;2023-07-13T13:27:42;101139.03;;;19.12;49.47